createdAt,value
2023-03-29T00:00:59.862Z,16.39
2023-03-29T00:01:59.646Z,16.39
2023-03-29T00:02:59.654Z,16.39
2023-03-29T00:04:02.307Z,16.41
2023-03-29T00:04:59.607Z,16.44
2023-03-29T00:05:59.598Z,16.42
2023-03-29T00:06:59.596Z,16.43
2023-03-29T00:07:59.577Z,16.47
2023-03-29T00:08:59.565Z,16.40
2023-03-29T00:09:59.538Z,16.40
2023-03-29T00:10:59.723Z,16.37
2023-03-29T00:11:59.539Z,16.41
2023-03-29T00:12:59.519Z,16.39
2023-03-29T00:13:59.551Z,16.40
2023-03-29T00:14:59.516Z,16.40
2023-03-29T00:15:59.526Z,16.40
2023-03-29T00:16:59.575Z,16.50
2023-03-29T00:17:59.552Z,16.36
2023-03-29T00:18:59.495Z,16.40
2023-03-29T00:19:59.485Z,16.44
2023-03-29T00:20:59.741Z,16.45
2023-03-29T00:21:59.454Z,16.42
2023-03-29T00:22:59.456Z,16.40
2023-03-29T00:23:59.458Z,16.48
2023-03-29T00:24:59.465Z,16.42
2023-03-29T00:25:59.480Z,16.43
2023-03-29T00:26:59.490Z,16.51
2023-03-29T00:27:59.461Z,16.46
2023-03-29T00:28:59.423Z,16.45
2023-03-29T00:29:59.418Z,16.43
2023-03-29T00:30:59.591Z,16.43
2023-03-29T00:31:59.376Z,16.48
2023-03-29T00:32:59.387Z,16.48
2023-03-29T00:33:59.383Z,16.45
2023-03-29T00:34:59.376Z,16.49
2023-03-29T00:35:59.410Z,16.48
2023-03-29T00:36:59.371Z,16.45
2023-03-29T00:37:59.365Z,16.46
2023-03-29T00:38:59.356Z,16.45
2023-03-29T00:39:59.338Z,16.51
2023-03-29T00:40:59.530Z,16.51
2023-03-29T00:41:59.336Z,16.49
2023-03-29T00:42:59.355Z,16.49
2023-03-29T00:43:59.323Z,16.49
2023-03-29T00:44:59.297Z,16.51
2023-03-29T00:45:59.349Z,16.49
2023-03-29T00:46:59.317Z,16.53
2023-03-29T00:47:59.337Z,16.57
2023-03-29T00:48:59.279Z,16.53
2023-03-29T00:49:59.282Z,16.54
2023-03-29T00:50:59.408Z,16.55
2023-03-29T00:51:59.249Z,16.55
2023-03-29T00:52:59.279Z,16.59
2023-03-29T00:53:59.260Z,16.53
2023-03-29T00:54:59.249Z,16.57
2023-03-29T00:55:59.234Z,16.54
2023-03-29T00:56:59.268Z,16.53
2023-03-29T00:57:59.225Z,16.59
2023-03-29T00:58:59.230Z,16.62
2023-03-29T00:59:59.242Z,16.59
2023-03-29T01:00:59.337Z,16.68
2023-03-29T01:01:59.245Z,16.63
2023-03-29T01:02:59.263Z,16.62
2023-03-29T01:03:59.204Z,16.68
2023-03-29T01:04:59.182Z,16.60
2023-03-29T01:05:59.182Z,16.63
2023-03-29T01:06:59.221Z,16.65
2023-03-29T01:07:59.178Z,16.63
2023-03-29T01:08:59.158Z,16.62
2023-03-29T01:09:59.168Z,16.65
2023-03-29T01:10:59.224Z,16.69
2023-03-29T01:11:59.138Z,16.66
2023-03-29T01:12:59.120Z,16.66
2023-03-29T01:13:59.129Z,16.61
2023-03-29T01:14:59.120Z,16.66
2023-03-29T01:15:59.136Z,16.66
2023-03-29T01:16:59.105Z,16.65
2023-03-29T01:17:59.139Z,16.68
2023-03-29T01:18:59.123Z,16.69
2023-03-29T01:19:59.077Z,16.73
2023-03-29T01:20:59.118Z,16.63
2023-03-29T01:21:59.092Z,16.71
2023-03-29T01:24:18.297Z,16.72
2023-03-29T01:25:18.318Z,16.69
2023-03-29T01:26:18.305Z,16.64
2023-03-29T01:27:18.249Z,16.69
2023-03-29T01:28:18.262Z,16.74
2023-03-29T01:29:18.265Z,16.77
2023-03-29T01:30:18.280Z,16.72
2023-03-29T01:31:18.276Z,16.69
2023-03-29T01:32:18.239Z,16.74
2023-03-29T01:33:18.212Z,16.75
2023-03-29T01:34:18.206Z,16.78
2023-03-29T01:35:18.238Z,16.75
2023-03-29T01:36:18.282Z,16.74
2023-03-29T01:37:18.192Z,16.73
2023-03-29T01:38:18.202Z,16.75
2023-03-29T01:39:18.219Z,16.77
2023-03-29T01:40:18.182Z,16.75
2023-03-29T01:41:18.181Z,16.76
2023-03-29T01:42:18.190Z,16.83
2023-03-29T01:43:18.162Z,16.78
2023-03-29T01:44:18.160Z,16.82
2023-03-29T01:45:18.146Z,16.86
2023-03-29T01:46:18.264Z,16.77
2023-03-29T01:47:18.138Z,16.83
2023-03-29T01:48:18.135Z,16.80
2023-03-29T01:49:18.108Z,16.82
2023-03-29T01:50:18.124Z,16.82
2023-03-29T01:51:18.116Z,16.82
2023-03-29T01:52:18.104Z,16.86
2023-03-29T01:53:18.156Z,16.87
2023-03-29T01:54:18.139Z,16.85
2023-03-29T01:55:18.101Z,16.89
2023-03-29T01:56:18.086Z,16.91
2023-03-29T01:57:18.092Z,16.85
2023-03-29T01:58:18.070Z,16.86
2023-03-29T01:59:18.053Z,16.91
2023-03-29T02:00:18.116Z,16.83
2023-03-29T02:01:18.072Z,16.88
2023-03-29T02:02:18.061Z,16.91
2023-03-29T02:03:18.125Z,16.91
2023-03-29T02:04:18.022Z,16.88
2023-03-29T02:05:18.015Z,16.94
2023-03-29T02:06:18.042Z,16.94
2023-03-29T02:07:18.023Z,16.96
2023-03-29T02:08:18.000Z,16.92
2023-03-29T02:09:17.997Z,16.91
2023-03-29T02:10:18.008Z,16.89
2023-03-29T02:11:17.968Z,16.94
2023-03-29T02:12:17.977Z,16.94
2023-03-29T02:13:17.980Z,16.89
2023-03-29T02:14:17.983Z,17.00
2023-03-29T02:15:17.971Z,17.00
2023-03-29T02:16:17.947Z,16.99
2023-03-29T02:17:17.953Z,17.03
2023-03-29T02:18:17.936Z,16.99
2023-03-29T02:19:17.940Z,17.00
2023-03-29T02:20:17.924Z,17.03
2023-03-29T02:21:17.924Z,17.11
2023-03-29T02:22:17.927Z,17.05
2023-03-29T02:23:17.891Z,17.05
2023-03-29T02:24:17.896Z,17.08
2023-03-29T02:25:17.867Z,17.08
2023-03-29T02:26:17.877Z,17.11
2023-03-29T02:27:17.897Z,17.11
2023-03-29T02:28:17.860Z,17.19
2023-03-29T02:29:17.870Z,17.15
2023-03-29T02:30:17.877Z,17.14
2023-03-29T02:31:17.885Z,17.15
2023-03-29T02:32:17.832Z,17.15
2023-03-29T02:33:17.809Z,17.15
2023-03-29T02:34:17.815Z,17.23
2023-03-29T02:35:17.835Z,17.22
2023-03-29T02:36:17.917Z,17.23
2023-03-29T02:37:17.814Z,17.20
2023-03-29T02:38:17.814Z,17.25
2023-03-29T02:39:17.815Z,17.25
2023-03-29T02:40:17.810Z,17.25
2023-03-29T02:41:17.811Z,17.23
2023-03-29T02:42:17.766Z,17.29
2023-03-29T02:43:17.819Z,17.29
2023-03-29T02:44:17.751Z,17.26
2023-03-29T02:45:17.757Z,17.26
2023-03-29T02:46:17.760Z,17.26
2023-03-29T02:47:17.742Z,17.28
2023-03-29T02:48:17.787Z,17.32
2023-03-29T02:49:17.761Z,17.32
2023-03-29T02:50:17.727Z,17.32
2023-03-29T02:51:19.891Z,17.37
2023-03-29T02:52:17.827Z,17.34
2023-03-29T02:53:17.877Z,17.36
2023-03-29T02:54:17.893Z,17.37
2023-03-29T02:55:17.888Z,17.42
2023-03-29T02:56:17.879Z,17.37
2023-03-29T02:57:18.001Z,17.36
2023-03-29T02:58:17.920Z,17.37
2023-03-29T02:59:17.973Z,17.40
2023-03-29T03:00:17.954Z,17.37
2023-03-29T03:01:17.986Z,17.43
2023-03-29T03:02:18.030Z,17.37
2023-03-29T03:03:18.075Z,17.43
2023-03-29T03:04:18.005Z,17.43
2023-03-29T03:05:17.985Z,17.39
2023-03-29T03:06:18.018Z,17.41
2023-03-29T03:07:18.035Z,17.36
2023-03-29T03:08:18.031Z,17.44
2023-03-29T03:09:17.998Z,17.41
2023-03-29T03:10:18.012Z,17.41
2023-03-29T03:11:18.028Z,17.39
2023-03-29T03:12:18.037Z,17.39
2023-03-29T03:13:18.062Z,17.43
2023-03-29T03:14:18.100Z,17.40
2023-03-29T03:15:18.147Z,17.38
2023-03-29T03:16:18.281Z,17.37
2023-03-29T03:17:18.256Z,17.40
2023-03-29T03:18:18.348Z,17.37
2023-03-29T03:19:18.392Z,17.40
2023-03-29T03:20:18.489Z,17.37
2023-03-29T03:21:18.517Z,17.37
2023-03-29T03:22:18.537Z,17.42
2023-03-29T03:23:18.605Z,17.40
2023-03-29T03:24:18.720Z,17.37
2023-03-29T03:25:18.732Z,17.34
2023-03-29T03:26:18.787Z,17.38
2023-03-29T03:27:18.828Z,17.33
2023-03-29T03:28:18.876Z,17.30
2023-03-29T03:29:18.904Z,17.35
2023-03-29T03:30:18.953Z,17.32
2023-03-29T03:31:19.006Z,17.35
2023-03-29T03:32:19.020Z,17.35
2023-03-29T03:33:19.072Z,17.32
2023-03-29T03:34:19.085Z,17.38
2023-03-29T03:35:19.162Z,17.34
2023-03-29T03:36:19.177Z,17.35
2023-03-29T03:37:19.219Z,17.37
2023-03-29T03:38:19.209Z,17.32
2023-03-29T03:39:19.281Z,17.38
2023-03-29T03:40:19.296Z,17.40
2023-03-29T03:41:19.287Z,17.35
2023-03-29T03:42:19.335Z,17.37
2023-03-29T03:43:19.345Z,17.40
2023-03-29T03:44:19.372Z,17.45
2023-03-29T03:45:19.400Z,17.43
2023-03-29T03:46:19.440Z,17.40
2023-03-29T03:47:19.441Z,17.37
2023-03-29T03:48:19.467Z,17.35
2023-03-29T03:49:19.558Z,17.43
2023-03-29T03:50:19.543Z,17.40
2023-03-29T03:51:19.555Z,17.43
2023-03-29T03:52:19.540Z,17.42
2023-03-29T03:53:19.615Z,17.40
2023-03-29T03:54:19.623Z,17.39
2023-03-29T03:55:19.639Z,17.36
2023-03-29T03:56:19.641Z,17.42
2023-03-29T03:57:19.713Z,17.36
2023-03-29T03:58:19.688Z,17.41
2023-03-29T03:59:19.683Z,17.42
2023-03-29T04:00:19.786Z,17.42
2023-03-29T04:01:19.732Z,17.39
2023-03-29T04:02:19.814Z,17.41
2023-03-29T04:03:19.914Z,17.41
2023-03-29T04:04:19.874Z,17.39
2023-03-29T04:05:19.844Z,17.41
2023-03-29T04:06:19.832Z,17.41
2023-03-29T04:07:19.862Z,17.41
2023-03-29T04:08:19.897Z,17.42
2023-03-29T04:09:19.971Z,17.42
2023-03-29T04:10:19.914Z,17.46
2023-03-29T04:11:19.920Z,17.41
2023-03-29T04:12:19.925Z,17.47
2023-03-29T04:13:19.955Z,17.38
2023-03-29T04:14:19.980Z,17.49
2023-03-29T04:15:19.984Z,17.42
2023-03-29T04:16:20.024Z,17.41
2023-03-29T04:17:20.084Z,17.44
2023-03-29T04:18:20.146Z,17.44
2023-03-29T04:19:20.019Z,17.46
2023-03-29T04:20:20.001Z,17.50
2023-03-29T04:21:21.278Z,17.44
2023-03-29T04:22:20.023Z,17.46
2023-03-29T04:23:20.003Z,17.46
2023-03-29T04:24:20.021Z,17.51
2023-03-29T04:25:20.035Z,17.46
2023-03-29T04:26:20.049Z,17.49
2023-03-29T04:27:20.033Z,17.50
2023-03-29T04:28:20.053Z,17.50
2023-03-29T04:29:20.037Z,17.52
2023-03-29T04:30:20.018Z,17.46
2023-03-29T04:31:20.081Z,17.43
2023-03-29T04:32:20.056Z,17.46
2023-03-29T04:33:20.067Z,17.46
2023-03-29T04:34:20.080Z,17.45
2023-03-29T04:35:20.054Z,17.46
2023-03-29T04:36:20.102Z,17.43
2023-03-29T04:37:20.065Z,17.42
2023-03-29T04:38:20.164Z,17.46
2023-03-29T04:39:20.088Z,17.43
2023-03-29T04:40:20.112Z,17.40
2023-03-29T04:41:20.125Z,17.43
2023-03-29T04:42:20.142Z,17.51
2023-03-29T04:43:20.123Z,17.45
2023-03-29T04:44:20.130Z,17.48
2023-03-29T04:45:20.162Z,17.43
2023-03-29T04:46:20.227Z,17.43
2023-03-29T04:47:20.159Z,17.40
2023-03-29T04:48:20.149Z,17.47
2023-03-29T04:49:20.130Z,17.45
2023-03-29T04:50:20.163Z,17.42
2023-03-29T04:51:20.132Z,17.48
2023-03-29T04:52:21.363Z,17.45
2023-03-29T04:53:20.153Z,17.48
2023-03-29T04:54:20.137Z,17.51
2023-03-29T04:55:20.147Z,17.47
2023-03-29T04:56:20.147Z,17.48
2023-03-29T04:57:20.149Z,17.53
2023-03-29T04:58:22.482Z,17.50
2023-03-29T04:59:20.111Z,17.53
2023-03-29T05:00:20.207Z,17.50
2023-03-29T05:01:27.170Z,17.51
2023-03-29T05:02:20.131Z,17.50
2023-03-29T05:03:20.105Z,17.54
2023-03-29T05:04:20.152Z,17.48
2023-03-29T05:05:20.080Z,17.50
2023-03-29T05:06:20.081Z,17.54
2023-03-29T05:07:20.057Z,17.57
2023-03-29T05:08:20.054Z,17.51
2023-03-29T05:09:20.053Z,17.56
2023-03-29T05:10:20.031Z,17.54
2023-03-29T05:11:20.136Z,17.53
2023-03-29T05:12:20.013Z,17.59
2023-03-29T05:13:20.031Z,17.59
2023-03-29T05:14:20.035Z,17.57
2023-03-29T05:15:20.008Z,17.54
2023-03-29T05:16:20.097Z,17.61
2023-03-29T05:17:19.990Z,17.57
2023-03-29T05:18:19.990Z,17.57
2023-03-29T05:19:19.973Z,17.60
2023-03-29T05:20:19.970Z,17.63
2023-03-29T05:21:19.949Z,17.71
2023-03-29T05:22:19.996Z,17.89
2023-03-29T05:23:19.956Z,17.90
2023-03-29T05:24:20.001Z,18.06
2023-03-29T05:25:19.959Z,18.20
2023-03-29T05:26:19.944Z,18.42
2023-03-29T05:27:19.933Z,18.67
2023-03-29T05:28:19.933Z,18.92
2023-03-29T05:29:19.897Z,19.12
2023-03-29T05:30:19.914Z,19.43
2023-03-29T05:31:20.002Z,19.71
2023-03-29T05:32:19.926Z,19.97
2023-03-29T05:33:19.896Z,20.28
2023-03-29T05:34:19.910Z,20.41
2023-03-29T05:35:19.894Z,20.76
2023-03-29T05:36:19.856Z,21.15
2023-03-29T05:37:19.873Z,21.44
2023-03-29T05:38:19.899Z,21.84
2023-03-29T05:39:19.858Z,22.60
2023-03-29T05:40:19.845Z,22.74
2023-03-29T05:41:19.820Z,22.81
2023-03-29T05:42:19.835Z,23.41
2023-03-29T05:43:19.814Z,22.73
2023-03-29T05:44:20.132Z,23.30
2023-03-29T05:45:19.826Z,22.98
2023-03-29T05:46:26.852Z,24.13
2023-03-29T05:47:19.845Z,23.19
2023-03-29T05:48:19.787Z,23.14
2023-03-29T05:49:20.182Z,23.15
2023-03-29T05:50:19.794Z,22.72
2023-03-29T05:51:19.807Z,22.98
2023-03-29T05:52:19.825Z,23.00
2023-03-29T05:53:19.782Z,23.22
2023-03-29T05:54:19.777Z,23.10
2023-03-29T05:55:19.750Z,23.11
2023-03-29T05:56:19.804Z,23.37
2023-03-29T05:57:19.820Z,23.70
2023-03-29T05:58:19.737Z,23.68
2023-03-29T05:59:19.769Z,23.69
2023-03-29T06:00:19.715Z,23.50
2023-03-29T06:01:19.735Z,23.72
2023-03-29T06:02:19.773Z,23.52
2023-03-29T06:03:21.094Z,23.93
2023-03-29T06:04:19.810Z,23.66
2023-03-29T06:05:19.700Z,23.62
2023-03-29T06:06:19.699Z,23.64
2023-03-29T06:07:19.738Z,23.63
2023-03-29T06:08:19.671Z,23.73
2023-03-29T06:09:19.704Z,23.85
2023-03-29T06:10:19.648Z,23.92
2023-03-29T06:11:19.719Z,23.64
2023-03-29T06:12:19.769Z,23.82
2023-03-29T06:13:19.844Z,24.78
2023-03-29T06:14:19.871Z,24.33
2023-03-29T06:15:19.943Z,24.56
2023-03-29T06:16:20.035Z,25.00
2023-03-29T06:17:20.097Z,24.48
2023-03-29T06:18:20.111Z,24.05
2023-03-29T06:19:20.082Z,24.32
2023-03-29T06:20:20.173Z,24.28
2023-03-29T06:21:20.167Z,24.06
2023-03-29T06:22:21.435Z,24.17
2023-03-29T06:23:20.244Z,24.89
2023-03-29T06:24:20.297Z,24.95
2023-03-29T06:25:20.305Z,24.33
2023-03-29T06:26:20.312Z,24.64
2023-03-29T06:27:20.349Z,24.66
2023-03-29T06:28:20.378Z,24.33
2023-03-29T06:29:20.403Z,24.28
2023-03-29T06:30:20.408Z,23.90
2023-03-29T06:31:20.438Z,24.71
2023-03-29T06:32:20.455Z,24.49
2023-03-29T06:33:20.492Z,24.32
2023-03-29T06:34:20.428Z,24.32
2023-03-29T06:35:20.451Z,24.43
2023-03-29T06:36:20.490Z,24.41
2023-03-29T06:37:20.490Z,24.25
2023-03-29T06:38:20.503Z,24.13
2023-03-29T06:39:20.538Z,24.15
2023-03-29T06:40:20.568Z,23.71
2023-03-29T06:41:20.594Z,23.93
2023-03-29T06:42:21.880Z,23.54
2023-03-29T06:43:20.635Z,23.60
2023-03-29T06:44:20.690Z,23.83
2023-03-29T06:45:23.822Z,23.63
2023-03-29T06:46:20.727Z,24.02
2023-03-29T06:47:20.742Z,24.04
2023-03-29T06:48:20.663Z,24.08
2023-03-29T06:49:20.682Z,24.66
2023-03-29T06:50:20.683Z,24.50
2023-03-29T06:51:23.223Z,24.33
2023-03-29T06:52:20.643Z,25.13
2023-03-29T06:53:20.858Z,24.52
2023-03-29T06:54:20.674Z,24.40
2023-03-29T06:55:20.625Z,24.66
2023-03-29T06:56:20.641Z,24.48
2023-03-29T06:57:20.634Z,24.31
2023-03-29T06:58:20.653Z,24.19
2023-03-29T06:59:20.604Z,24.35
2023-03-29T07:00:20.616Z,24.53
2023-03-29T07:01:20.623Z,24.12
2023-03-29T07:02:20.611Z,24.19
2023-03-29T07:03:20.624Z,23.81
2023-03-29T07:04:20.626Z,23.26
2023-03-29T07:05:20.584Z,23.32
2023-03-29T07:06:20.651Z,23.51
2023-03-29T07:07:20.720Z,23.35
2023-03-29T07:08:20.603Z,23.29
2023-03-29T07:09:20.535Z,23.40
2023-03-29T07:10:20.551Z,23.18
2023-03-29T07:11:20.564Z,22.92
2023-03-29T07:12:20.549Z,23.20
2023-03-29T07:13:20.533Z,22.96
2023-03-29T07:14:20.548Z,23.31
2023-03-29T07:15:20.515Z,23.11
2023-03-29T07:16:20.623Z,23.42
2023-03-29T07:17:20.563Z,22.78
2023-03-29T07:18:20.505Z,23.01
2023-03-29T07:19:20.497Z,23.29
2023-03-29T07:20:20.469Z,22.94
2023-03-29T07:21:20.591Z,22.91
2023-03-29T07:22:20.458Z,22.90
2023-03-29T07:23:20.437Z,22.80
2023-03-29T07:24:20.445Z,23.08
2023-03-29T07:25:20.429Z,22.66
2023-03-29T07:26:28.969Z,22.47
2023-03-29T07:27:21.437Z,22.61
2023-03-29T07:28:20.422Z,22.55
2023-03-29T07:29:20.434Z,22.44
2023-03-29T07:30:20.384Z,22.74
2023-03-29T07:31:20.389Z,23.20
2023-03-29T07:32:20.434Z,23.14
2023-03-29T07:33:20.410Z,23.14
2023-03-29T07:34:20.362Z,22.90
2023-03-29T07:35:20.386Z,23.21
2023-03-29T07:36:20.402Z,22.89
2023-03-29T07:37:20.342Z,23.58
2023-03-29T07:38:20.328Z,23.03
2023-03-29T07:39:20.332Z,23.20
2023-03-29T07:40:20.354Z,22.93
2023-03-29T07:41:20.364Z,22.92
2023-03-29T07:42:20.348Z,22.82
2023-03-29T07:43:20.378Z,23.04
2023-03-29T07:44:20.361Z,23.18
2023-03-29T07:45:20.697Z,23.51
2023-03-29T07:46:21.441Z,23.46
2023-03-29T07:47:20.384Z,23.26
2023-03-29T07:48:20.417Z,23.29
2023-03-29T07:49:22.107Z,22.89
2023-03-29T07:50:20.449Z,22.92
2023-03-29T07:51:20.517Z,22.87
2023-03-29T07:52:21.371Z,22.82
2023-03-29T07:53:20.594Z,22.82
2023-03-29T07:54:20.696Z,22.73
2023-03-29T07:55:20.744Z,22.71
2023-03-29T07:56:20.768Z,22.68
2023-03-29T07:57:20.835Z,22.68
2023-03-29T07:58:20.787Z,22.61
2023-03-29T07:59:20.796Z,22.56
2023-03-29T08:00:21.663Z,22.58
2023-03-29T08:01:20.890Z,22.56
2023-03-29T08:02:20.869Z,22.58
2023-03-29T08:03:20.977Z,22.53
2023-03-29T08:04:20.994Z,22.47
2023-03-29T08:05:26.256Z,22.51
2023-03-29T08:06:21.845Z,22.46
2023-03-29T08:07:20.891Z,22.40
2023-03-29T08:08:20.859Z,22.40
2023-03-29T08:09:20.847Z,22.42
2023-03-29T08:10:20.839Z,22.39
2023-03-29T08:11:20.821Z,22.29
2023-03-29T08:12:22.054Z,22.34
2023-03-29T08:13:20.842Z,22.31
2023-03-29T08:14:20.821Z,22.29
2023-03-29T08:15:20.816Z,22.31
2023-03-29T08:16:20.822Z,22.27
2023-03-29T08:17:20.812Z,22.26
2023-03-29T08:18:20.779Z,22.23
2023-03-29T08:19:20.830Z,22.23
2023-03-29T08:20:21.275Z,22.18
2023-03-29T08:21:20.790Z,22.13
2023-03-29T08:22:20.762Z,22.13
2023-03-29T08:23:20.756Z,22.18
2023-03-29T08:24:21.136Z,22.08
2023-03-29T08:25:20.749Z,22.12
2023-03-29T08:26:20.733Z,22.07
2023-03-29T08:27:20.731Z,22.06
2023-03-29T08:28:20.684Z,22.10
2023-03-29T08:29:20.750Z,22.04
2023-03-29T08:30:20.843Z,22.07
2023-03-29T08:31:20.722Z,22.02
2023-03-29T08:32:20.713Z,21.99
2023-03-29T08:33:20.687Z,21.99
2023-03-29T08:34:20.685Z,21.96
2023-03-29T08:35:20.719Z,21.95
2023-03-29T08:36:20.695Z,21.90
2023-03-29T08:37:20.671Z,22.95
2023-03-29T08:38:20.623Z,22.38
2023-03-29T08:39:20.642Z,22.47
2023-03-29T08:40:20.652Z,22.14
2023-03-29T08:41:20.628Z,22.16
2023-03-29T08:42:20.635Z,21.63
2023-03-29T08:43:20.630Z,21.73
2023-03-29T08:44:20.597Z,21.46
2023-03-29T08:45:20.606Z,21.69
2023-03-29T08:46:20.613Z,21.46
2023-03-29T08:47:20.609Z,21.97
2023-03-29T08:48:20.575Z,22.01
2023-03-29T08:49:20.569Z,22.02
2023-03-29T08:50:20.583Z,21.67
2023-03-29T08:51:20.549Z,21.76
2023-03-29T08:52:20.547Z,21.62
2023-03-29T08:53:20.563Z,21.67
2023-03-29T08:54:20.554Z,21.76
2023-03-29T08:55:20.741Z,21.80
2023-03-29T08:56:20.521Z,21.80
2023-03-29T08:57:20.608Z,21.41
2023-03-29T08:58:20.504Z,21.35
2023-03-29T08:59:20.550Z,21.20
2023-03-29T09:00:20.567Z,21.12
2023-03-29T09:01:20.499Z,21.05
2023-03-29T09:02:20.547Z,21.03
2023-03-29T09:03:20.646Z,20.95
2023-03-29T09:04:20.470Z,20.86
2023-03-29T09:05:20.494Z,20.82
2023-03-29T09:06:20.475Z,20.83
2023-03-29T09:07:20.469Z,20.79
2023-03-29T09:08:20.416Z,20.80
2023-03-29T09:09:20.436Z,20.72
2023-03-29T09:10:20.416Z,20.67
2023-03-29T09:11:20.421Z,20.73
2023-03-29T09:12:20.417Z,20.67
2023-03-29T09:13:20.454Z,20.76
2023-03-29T09:14:20.403Z,20.78
2023-03-29T09:15:20.364Z,20.75
2023-03-29T09:16:20.434Z,20.77
2023-03-29T09:17:20.414Z,20.65
2023-03-29T09:18:20.463Z,20.63
2023-03-29T09:19:20.518Z,20.70
2023-03-29T09:20:20.745Z,20.71
2023-03-29T09:21:20.613Z,20.73
2023-03-29T09:22:20.640Z,20.65
2023-03-29T09:23:20.665Z,20.69
2023-03-29T09:24:20.705Z,20.61
2023-03-29T09:25:21.321Z,20.69
2023-03-29T09:26:20.673Z,20.69
2023-03-29T09:27:20.671Z,20.65
2023-03-29T09:28:20.660Z,20.72
2023-03-29T09:29:20.700Z,20.76
2023-03-29T09:30:20.735Z,20.72
2023-03-29T09:31:20.723Z,20.84
2023-03-29T09:32:20.719Z,20.79
2023-03-29T09:33:20.709Z,20.81
2023-03-29T09:34:20.763Z,20.82
2023-03-29T09:35:20.725Z,20.88
2023-03-29T09:36:20.796Z,20.90
2023-03-29T09:37:20.766Z,20.90
2023-03-29T09:38:20.755Z,20.86
2023-03-29T09:39:20.801Z,20.86
2023-03-29T09:40:20.814Z,20.82
2023-03-29T09:41:20.818Z,20.83
2023-03-29T09:42:20.824Z,20.90
2023-03-29T09:43:20.862Z,21.48
2023-03-29T09:44:30.738Z,22.56
2023-03-29T09:45:21.911Z,23.20
2023-03-29T09:46:21.028Z,23.48
2023-03-29T09:47:20.908Z,23.93
2023-03-29T09:48:20.896Z,23.84
2023-03-29T09:49:20.912Z,24.53
2023-03-29T09:50:31.032Z,24.33
2023-03-29T09:51:21.872Z,24.31
2023-03-29T09:52:20.873Z,25.29
2023-03-29T09:53:20.911Z,25.07
2023-03-29T09:54:20.879Z,24.84
2023-03-29T09:55:20.864Z,25.02
2023-03-29T09:56:20.834Z,24.69
2023-03-29T09:57:20.887Z,24.80
2023-03-29T09:58:20.831Z,24.77
2023-03-29T09:59:20.908Z,24.80
2023-03-29T10:00:20.812Z,24.75
2023-03-29T10:01:20.885Z,25.52
2023-03-29T10:02:21.940Z,25.46
2023-03-29T10:03:21.829Z,25.62
2023-03-29T10:04:20.913Z,25.27
2023-03-29T10:05:20.797Z,25.52
2023-03-29T10:06:20.778Z,25.22
2023-03-29T10:07:20.834Z,25.34
2023-03-29T10:08:20.843Z,25.22
2023-03-29T10:09:20.851Z,25.18
2023-03-29T10:10:20.745Z,25.15
2023-03-29T10:11:20.761Z,25.19
2023-03-29T10:12:20.802Z,25.80
2023-03-29T10:13:21.799Z,25.89
2023-03-29T10:14:20.729Z,25.69
2023-03-29T10:15:29.054Z,25.74
2023-03-29T10:16:21.770Z,25.60
2023-03-29T10:17:20.730Z,25.48
2023-03-29T10:18:20.776Z,25.66
2023-03-29T10:19:20.718Z,26.13
2023-03-29T10:20:20.702Z,25.64
2023-03-29T10:21:20.756Z,25.73
2023-03-29T10:22:20.644Z,25.60
2023-03-29T10:23:20.659Z,25.86
2023-03-29T10:24:20.651Z,25.88
2023-03-29T10:25:20.631Z,25.97
2023-03-29T10:26:20.723Z,25.87
2023-03-29T10:27:20.926Z,26.22
2023-03-29T10:28:20.944Z,26.34
2023-03-29T10:29:21.074Z,26.58
2023-03-29T10:30:21.124Z,26.96
2023-03-29T10:31:21.337Z,26.53
2023-03-29T10:32:21.139Z,26.91
2023-03-29T10:33:21.153Z,27.21
2023-03-29T10:34:21.184Z,26.61
2023-03-29T10:35:21.169Z,26.03
2023-03-29T10:36:21.285Z,25.81
2023-03-29T10:37:21.299Z,25.69
2023-03-29T10:38:21.244Z,25.36
2023-03-29T10:39:21.236Z,25.21
2023-03-29T10:40:21.211Z,25.34
2023-03-29T10:41:21.229Z,25.22
2023-03-29T10:42:21.246Z,25.18
2023-03-29T10:43:21.245Z,25.18
2023-03-29T10:44:21.245Z,25.18
2023-03-29T10:45:21.224Z,25.15
2023-03-29T10:46:21.299Z,24.93
2023-03-29T10:47:21.265Z,24.90
2023-03-29T10:48:21.307Z,24.88
2023-03-29T10:49:21.343Z,24.77
2023-03-29T10:50:21.394Z,24.71
2023-03-29T10:51:21.815Z,24.65
2023-03-29T10:52:21.482Z,24.66
2023-03-29T10:53:21.519Z,24.56
2023-03-29T10:54:21.548Z,24.54
2023-03-29T10:55:21.595Z,24.47
2023-03-29T10:56:21.655Z,24.41
2023-03-29T10:57:22.937Z,24.40
2023-03-29T10:58:21.774Z,24.37
2023-03-29T10:59:21.828Z,24.34
2023-03-29T11:00:21.922Z,24.33
2023-03-29T11:01:22.014Z,24.25
2023-03-29T11:02:22.003Z,24.25
2023-03-29T11:03:22.095Z,24.22
2023-03-29T11:04:22.103Z,24.21
2023-03-29T11:05:22.147Z,24.15
2023-03-29T11:06:22.267Z,24.18
2023-03-29T11:07:22.274Z,24.11
2023-03-29T11:08:22.295Z,24.06
2023-03-29T11:09:22.387Z,24.06
2023-03-29T11:10:22.406Z,24.01
2023-03-29T11:11:22.491Z,24.03
2023-03-29T11:12:22.505Z,23.95
2023-03-29T11:13:22.503Z,23.97
2023-03-29T11:14:22.533Z,23.92
2023-03-29T11:15:22.556Z,23.90
2023-03-29T11:16:22.735Z,23.87
2023-03-29T11:17:22.659Z,23.81
2023-03-29T11:18:22.635Z,23.80
2023-03-29T11:19:22.716Z,23.75
2023-03-29T11:20:22.721Z,23.73
2023-03-29T11:21:22.799Z,23.68
2023-03-29T11:22:22.780Z,23.70
2023-03-29T11:23:22.792Z,23.68
2023-03-29T11:24:22.827Z,23.64
2023-03-29T11:25:22.861Z,23.64
2023-03-29T11:26:23.320Z,23.62
2023-03-29T11:27:22.863Z,23.55
2023-03-29T11:28:22.876Z,23.43
2023-03-29T11:29:22.893Z,23.43
2023-03-29T11:30:22.858Z,23.37
2023-03-29T11:31:23.350Z,23.61
2023-03-29T11:32:22.933Z,23.63
2023-03-29T11:33:22.866Z,23.60
2023-03-29T11:34:22.929Z,23.48
2023-03-29T11:35:22.929Z,23.39
2023-03-29T11:36:23.336Z,23.45
2023-03-29T11:37:22.938Z,23.37
2023-03-29T11:38:22.948Z,23.36
2023-03-29T11:39:22.953Z,23.39
2023-03-29T11:40:23.822Z,23.30
2023-03-29T11:41:22.964Z,23.27
2023-03-29T11:42:22.983Z,23.27
2023-03-29T11:43:22.995Z,23.19
2023-03-29T11:44:22.985Z,23.17
2023-03-29T11:45:22.989Z,23.14
2023-03-29T11:46:22.991Z,23.13
2023-03-29T11:47:23.081Z,23.11
2023-03-29T11:48:23.012Z,23.06
2023-03-29T11:49:23.026Z,23.05
2023-03-29T11:50:23.025Z,23.02
2023-03-29T11:51:23.025Z,22.91
2023-03-29T11:52:23.037Z,22.89
2023-03-29T11:53:23.053Z,22.91
2023-03-29T11:54:23.050Z,22.91
2023-03-29T11:55:23.032Z,22.91
2023-03-29T11:56:23.075Z,22.91
2023-03-29T11:57:23.103Z,22.82
2023-03-29T11:58:23.095Z,22.80
2023-03-29T11:59:23.053Z,22.79
2023-03-29T12:00:23.062Z,22.82
2023-03-29T12:01:23.048Z,22.73
2023-03-29T12:02:23.137Z,22.79
2023-03-29T12:03:23.179Z,22.74
2023-03-29T12:04:23.162Z,22.70
2023-03-29T12:05:23.117Z,22.68
2023-03-29T12:06:23.134Z,22.65
2023-03-29T12:07:23.142Z,22.62
2023-03-29T12:08:23.114Z,22.58
2023-03-29T12:09:23.116Z,22.34
2023-03-29T12:10:23.101Z,22.22
2023-03-29T12:11:23.138Z,22.15
2023-03-29T12:12:23.182Z,22.15
2023-03-29T12:13:23.174Z,22.12
2023-03-29T12:14:24.077Z,22.18
2023-03-29T12:15:23.213Z,22.33
2023-03-29T12:16:23.322Z,22.59
2023-03-29T12:17:23.326Z,25.33
2023-03-29T12:18:23.308Z,26.15
2023-03-29T12:19:23.307Z,26.48
2023-03-29T12:20:23.363Z,28.03
2023-03-29T12:21:23.390Z,29.63
2023-03-29T12:22:23.369Z,27.82
2023-03-29T12:23:23.432Z,28.75
2023-03-29T12:24:23.465Z,30.09
2023-03-29T12:25:23.520Z,31.21
2023-03-29T12:26:23.506Z,33.56
2023-03-29T12:27:23.481Z,28.19
2023-03-29T12:28:23.529Z,27.33
2023-03-29T12:29:23.526Z,26.91
2023-03-29T12:30:23.557Z,27.12
2023-03-29T12:31:23.612Z,27.94
2023-03-29T12:32:23.597Z,27.87
2023-03-29T12:33:23.594Z,27.87
2023-03-29T12:34:23.602Z,27.94
2023-03-29T12:35:23.584Z,28.36
2023-03-29T12:36:23.612Z,28.36
2023-03-29T12:37:23.619Z,28.48
2023-03-29T12:38:23.592Z,28.41
2023-03-29T12:39:23.641Z,28.36
2023-03-29T12:40:23.611Z,28.18
2023-03-29T12:41:23.635Z,28.38
2023-03-29T12:42:23.647Z,28.38
2023-03-29T12:43:23.640Z,28.27
2023-03-29T12:44:23.700Z,28.17
2023-03-29T12:45:23.669Z,28.17
2023-03-29T12:46:23.725Z,28.10
2023-03-29T12:47:23.739Z,28.11
2023-03-29T12:48:23.683Z,27.97
2023-03-29T12:49:23.737Z,27.94
2023-03-29T12:50:23.750Z,27.95
2023-03-29T12:51:23.719Z,27.60
2023-03-29T12:52:23.724Z,27.71
2023-03-29T12:53:23.767Z,27.78
2023-03-29T12:54:25.038Z,27.69